Skip Navigation Links Skip Navigation Links

Current Weather

Porter County Muni, Valparaiso, Ind.

For information only: do not use for flight planning or navigation.
Latest weather
Observation time Wednesday, October 27, 2021 1:56 AM CDT
Local time Wednesday, October 27, 2021 2:19 AM CDT
Flight conditions Visual Meteorological Conditions
Winds
Wind speed calm
Visibility 5 mi.
Present weather mist
Sky condition
Ceiling unlimited
Sky clear
Temperature 35°F
Dewpoint 34°F
Altimeter 30.03 in.Hg
Derived measurements
Relative humidity 96%
Wind chill 35°F
Density altitude -875 ft.
Sea-level pressure 30.04 in.Hg
Remarks
Fully automated report.
Automated weather observing station with precipitation discriminator.
METAR KVPZ 270656Z AUTO 00000KT 5SM BR CLR 02/01 A3003 RMK AO2 SLP174 T00170011

Settings

Location code

InnerDrive.Weather 4.0.6770.0 Release CLR 4.0.30319.42000
Copyright ©2018 Inner Drive Technology. All rights reserved. Portions Copyright ©1986-2018 David Braverman.

Find weather

Site navigation


Skip Navigation Links

Place info

Page info

PayPal - The safer, easier way to pay online!

Return home.

Copyright ©2021 Inner Drive Technology. Purveyors of fine, hand-crafted computer software. Page printed 2021-10-27T07:19:53 UTC.